Henderson, New York
Current Conditions -  °F | °C
As of 11:56 PM on Monday 20 Oct 2014 (Local Time) from KART Reporting Station
Overcast Overcast  
Wind Chill: 54°   Ceiling: 4700
Heat Index: 54°   Visibility: 10mi
Dew Point: 38°   Wind: 9mph
Humidity: 55%   Direction: 190°S
Pressure: 29.85"   Gusts: NA
Location:  43.85°N, 76.18°W
Report Text: KART 210356Z AUTO 19008KT 10SM OVC047 12/03 A2985 RMK AO2 SLP108 T01220033
Loading
Personal Weather Stations






























Interactive Weather Map
Tropical Storm Tracking
New forecast layout! Learn more

10-Day Weather Forecast

Advertisements
Track Severe Weather on mobile